createdAt,value
2023-04-18T00:00:49.012Z,90.25
2023-04-18T00:03:17.027Z,89.26
2023-04-18T00:05:46.686Z,89.55
2023-04-18T00:08:13.882Z,89.48
2023-04-18T00:10:40.559Z,89.95
2023-04-18T00:13:06.861Z,90.34
2023-04-18T00:15:34.779Z,90.09
2023-04-18T00:18:03.232Z,89.56
2023-04-18T00:20:30.061Z,90.31
2023-04-18T00:22:56.480Z,90.00
2023-04-18T00:25:22.860Z,90.27
2023-04-18T00:27:49.124Z,89.97
2023-04-18T00:30:17.056Z,89.46
2023-04-18T00:32:43.857Z,90.41
2023-04-18T00:35:10.182Z,90.01
2023-04-18T00:37:37.734Z,90.12
2023-04-18T00:40:05.035Z,90.16
2023-04-18T00:42:31.429Z,89.81
2023-04-18T00:44:57.733Z,89.87
2023-04-18T00:47:24.535Z,89.68
2023-04-18T00:49:51.048Z,89.96
2023-04-18T00:52:18.039Z,89.73
2023-04-18T00:54:44.824Z,89.94
2023-04-18T00:57:12.359Z,90.28
2023-04-18T00:59:38.676Z,89.60
2023-04-18T01:02:07.315Z,89.77
2023-04-18T01:04:33.766Z,89.76
2023-04-18T01:07:01.562Z,89.60
2023-04-18T01:09:28.681Z,90.50
2023-04-18T01:11:55.316Z,89.91
2023-04-18T01:14:21.939Z,89.63
2023-04-18T01:16:48.262Z,89.98
2023-04-18T01:19:16.728Z,90.07
2023-04-18T01:21:43.329Z,89.71
2023-04-18T01:24:15.896Z,89.65
2023-04-18T01:26:44.616Z,89.95
2023-04-18T01:29:11.681Z,89.92
2023-04-18T01:31:39.314Z,89.63
2023-04-18T01:34:07.188Z,90.32
2023-04-18T01:36:35.296Z,89.97
2023-04-18T01:39:01.865Z,90.04
2023-04-18T01:41:31.626Z,90.50
2023-04-18T01:43:59.032Z,90.39
2023-04-18T01:46:26.324Z,90.16
2023-04-18T01:48:54.740Z,90.33
2023-04-18T01:51:21.458Z,90.24
2023-04-18T01:53:47.998Z,90.07
2023-04-18T01:56:14.334Z,90.11
2023-04-18T01:58:41.018Z,90.74
2023-04-18T02:01:07.720Z,90.16
2023-04-18T02:03:34.398Z,89.99
2023-04-18T02:06:04.703Z,90.41
2023-04-18T02:08:34.689Z,90.34
2023-04-18T02:11:04.766Z,90.47
2023-04-18T02:13:32.163Z,89.99
2023-04-18T02:15:58.551Z,90.10
2023-04-18T02:18:25.914Z,90.11
2023-04-18T02:20:52.217Z,90.58
2023-04-18T02:23:18.575Z,90.69
2023-04-18T02:25:45.099Z,90.05
2023-04-18T02:28:12.465Z,89.96
2023-04-18T02:30:38.723Z,90.01
2023-04-18T02:33:05.047Z,89.78
2023-04-18T02:35:31.430Z,90.41
2023-04-18T02:37:57.718Z,90.67
2023-04-18T02:40:24.844Z,90.04
2023-04-18T02:42:52.999Z,90.07
2023-04-18T02:45:19.341Z,90.35
2023-04-18T02:47:54.720Z,90.35
2023-04-18T02:50:23.846Z,90.41
2023-04-18T02:52:50.292Z,89.81
2023-04-18T02:55:17.070Z,90.33
2023-04-18T02:57:43.650Z,90.81
2023-04-18T03:00:40.835Z,90.73
2023-04-18T03:03:20.823Z,90.26
2023-04-18T03:05:57.133Z,90.52
2023-04-18T03:08:23.613Z,91.41
2023-04-18T03:10:49.933Z,90.55
2023-04-18T03:13:18.508Z,90.27
2023-04-18T03:15:45.824Z,90.75
2023-04-18T03:18:12.950Z,90.04
2023-04-18T03:20:40.291Z,90.14
2023-04-18T03:23:07.022Z,90.54
2023-04-18T03:25:35.082Z,90.42
2023-04-18T03:28:02.255Z,91.01
2023-04-18T03:30:28.821Z,90.89
2023-04-18T03:32:56.577Z,90.12
2023-04-18T03:35:23.507Z,90.27
2023-04-18T03:37:50.104Z,90.23
2023-04-18T03:40:28.128Z,90.57
2023-04-18T03:42:59.457Z,90.28
2023-04-18T03:45:26.237Z,90.36
2023-04-18T03:47:52.664Z,90.53
2023-04-18T03:50:19.861Z,90.76
2023-04-18T03:52:46.428Z,90.97
2023-04-18T03:55:14.629Z,91.02
2023-04-18T03:57:41.414Z,91.12
2023-04-18T04:00:11.440Z,91.43
2023-04-18T04:02:49.637Z,90.77
2023-04-18T04:05:19.141Z,90.62
2023-04-18T04:07:46.452Z,90.92
2023-04-18T04:10:12.748Z,90.54
2023-04-18T04:12:39.052Z,91.35
2023-04-18T04:15:06.465Z,91.16
2023-04-18T04:17:34.768Z,90.90
2023-04-18T04:20:01.719Z,91.27
2023-04-18T04:22:29.796Z,90.56
2023-04-18T04:24:57.036Z,90.70
2023-04-18T04:27:27.536Z,90.60
2023-04-18T04:29:55.701Z,90.80
2023-04-18T04:32:22.163Z,90.86
2023-04-18T04:34:48.783Z,90.58
2023-04-18T04:37:17.919Z,90.85
2023-04-18T04:39:55.903Z,90.43
2023-04-18T04:42:34.279Z,90.45
2023-04-18T04:45:09.100Z,90.55
2023-04-18T04:47:36.147Z,90.62
2023-04-18T04:50:03.654Z,90.24
2023-04-18T04:52:32.252Z,90.51
2023-04-18T04:54:58.842Z,90.09
2023-04-18T04:57:25.557Z,90.16
2023-04-18T04:59:52.281Z,90.14
2023-04-18T05:02:22.780Z,90.28
2023-04-18T05:04:49.249Z,90.09
2023-04-18T05:07:15.552Z,90.22
2023-04-18T05:09:41.777Z,90.41
2023-04-18T05:12:08.173Z,90.03
2023-04-18T05:14:34.829Z,90.15
2023-04-18T05:17:02.376Z,90.06
2023-04-18T05:19:28.900Z,90.00
2023-04-18T05:21:55.654Z,89.55
2023-04-18T05:24:21.991Z,89.46
2023-04-18T05:26:48.347Z,89.53
2023-04-18T05:29:14.636Z,89.60
2023-04-18T05:31:40.953Z,89.48
2023-04-18T05:34:07.303Z,89.40
2023-04-18T05:36:33.951Z,89.07
2023-04-18T05:39:00.343Z,89.13
2023-04-18T05:41:26.611Z,89.06
2023-04-18T05:44:04.314Z,89.05
2023-04-18T05:46:34.815Z,89.02
2023-04-18T05:49:01.921Z,88.81
2023-04-18T05:51:28.576Z,88.68
2023-04-18T05:53:55.025Z,88.41
2023-04-18T05:56:21.327Z,88.28
2023-04-18T05:58:48.348Z,88.31
2023-04-18T06:01:15.411Z,87.95
2023-04-18T06:03:41.920Z,87.92
2023-04-18T06:06:09.082Z,87.70
2023-04-18T06:08:35.503Z,87.91
2023-04-18T06:11:02.343Z,87.77
2023-04-18T06:13:29.030Z,87.49
2023-04-18T06:15:55.366Z,87.45
2023-04-18T06:18:21.913Z,87.41
2023-04-18T06:20:48.621Z,86.93
2023-04-18T06:23:14.999Z,87.11
2023-04-18T06:25:42.074Z,86.93
2023-04-18T06:28:08.509Z,87.16
2023-04-18T06:30:34.980Z,87.29
2023-04-18T06:33:01.337Z,86.84
2023-04-18T06:35:31.440Z,86.74
2023-04-18T06:37:57.740Z,86.15
2023-04-18T06:40:24.048Z,86.08
2023-04-18T06:42:50.869Z,86.40
2023-04-18T06:45:17.387Z,86.15
2023-04-18T06:47:43.977Z,86.14
2023-04-18T06:50:10.627Z,85.58
2023-04-18T06:52:39.899Z,85.39
2023-04-18T06:55:08.321Z,85.47
2023-04-18T06:57:35.109Z,85.01
2023-04-18T07:00:01.636Z,84.88
2023-04-18T07:02:27.944Z,84.82
2023-04-18T07:04:54.306Z,84.59
2023-04-18T07:07:20.685Z,84.80
2023-04-18T07:09:48.190Z,84.74
2023-04-18T07:12:15.428Z,84.74
2023-04-18T07:14:41.719Z,84.40
2023-04-18T07:17:08.288Z,84.11
2023-04-18T07:19:34.616Z,84.26
2023-04-18T07:22:00.851Z,84.11
2023-04-18T07:24:27.293Z,84.25
2023-04-18T07:26:55.157Z,84.05
2023-04-18T07:29:21.820Z,83.78
2023-04-18T07:31:48.613Z,83.67
2023-04-18T07:34:15.443Z,83.68
2023-04-18T07:36:42.047Z,83.69
2023-04-18T07:39:08.716Z,83.11
2023-04-18T07:41:35.017Z,83.31
2023-04-18T07:44:01.762Z,83.29
2023-04-18T07:46:28.391Z,83.08
2023-04-18T07:48:54.790Z,82.80
2023-04-18T07:51:24.770Z,82.66
2023-04-18T07:53:51.109Z,82.25
2023-04-18T07:56:18.193Z,82.60
2023-04-18T07:58:44.866Z,82.32
2023-04-18T08:01:13.359Z,82.04
2023-04-18T08:03:40.005Z,82.17
2023-04-18T08:06:06.653Z,82.01
2023-04-18T08:08:33.083Z,82.12
2023-04-18T08:10:59.353Z,82.49
2023-04-18T08:13:25.687Z,82.20
2023-04-18T08:15:51.953Z,82.16
2023-04-18T08:18:19.430Z,81.89
2023-04-18T08:20:46.094Z,82.32
2023-04-18T08:23:13.334Z,81.74
2023-04-18T08:25:40.177Z,81.82
2023-04-18T08:28:06.537Z,81.07
2023-04-18T08:30:33.240Z,81.59
2023-04-18T08:33:00.606Z,81.18
2023-04-18T08:35:27.496Z,80.86
2023-04-18T08:37:53.776Z,80.78
2023-04-18T08:40:20.682Z,80.67
2023-04-18T08:42:48.024Z,80.78
2023-04-18T08:45:17.212Z,80.42
2023-04-18T08:47:43.529Z,80.24
2023-04-18T08:50:10.774Z,80.12
2023-04-18T08:52:39.202Z,80.73
2023-04-18T08:55:06.544Z,80.25
2023-04-18T08:57:35.201Z,79.97
2023-04-18T09:00:04.856Z,78.87
2023-04-18T09:02:41.776Z,79.50
2023-04-18T09:05:11.733Z,79.13
2023-04-18T09:07:38.085Z,77.84
2023-04-18T09:10:04.921Z,77.52
2023-04-18T09:12:31.985Z,77.01
2023-04-18T09:15:15.606Z,76.76
2023-04-18T09:17:50.186Z,75.08
2023-04-18T09:20:41.607Z,75.46
2023-04-18T09:23:10.414Z,75.03
2023-04-18T09:25:45.142Z,74.98
2023-04-18T09:28:28.220Z,74.45
2023-04-18T09:31:16.793Z,73.88
2023-04-18T09:33:53.698Z,74.38
2023-04-18T09:36:21.901Z,73.95
2023-04-18T09:38:50.457Z,73.73
2023-04-18T09:41:18.493Z,72.73
2023-04-18T09:43:47.346Z,72.11
2023-04-18T09:46:16.716Z,72.32
2023-04-18T09:48:43.006Z,71.82
2023-04-18T09:51:12.635Z,72.49
2023-04-18T09:53:40.778Z,72.31
2023-04-18T09:56:13.907Z,71.83
2023-04-18T09:58:41.637Z,71.28
2023-04-18T10:01:08.271Z,70.75
2023-04-18T10:03:43.605Z,70.32
2023-04-18T10:06:11.189Z,69.96
2023-04-18T10:08:39.142Z,67.94
2023-04-18T10:11:05.545Z,68.25
2023-04-18T10:13:35.368Z,68.72
2023-04-18T10:16:02.287Z,68.91
2023-04-18T10:18:28.716Z,66.78
2023-04-18T10:21:02.785Z,66.26
2023-04-18T10:23:33.946Z,63.68
2023-04-18T10:26:04.133Z,63.90
2023-04-18T10:28:52.303Z,63.23
2023-04-18T10:31:20.714Z,61.49
2023-04-18T10:34:03.216Z,60.14
2023-04-18T10:36:31.761Z,59.86
2023-04-18T10:39:21.328Z,60.48
2023-04-18T10:41:50.715Z,61.46
2023-04-18T10:44:21.111Z,61.48
2023-04-18T10:46:47.864Z,61.37
2023-04-18T10:49:27.950Z,59.63
2023-04-18T10:51:57.945Z,57.83
2023-04-18T10:54:32.668Z,57.51
2023-04-18T10:57:03.957Z,59.16
2023-04-18T10:59:32.291Z,56.74
2023-04-18T11:02:22.484Z,56.72
2023-04-18T11:04:53.686Z,55.22
2023-04-18T11:07:44.332Z,54.31
2023-04-18T11:10:11.786Z,53.27
2023-04-18T11:12:40.355Z,53.06
2023-04-18T11:15:12.322Z,51.94
2023-04-18T11:17:43.593Z,53.44
2023-04-18T11:20:13.446Z,53.79
2023-04-18T11:22:43.481Z,52.72
2023-04-18T11:25:10.237Z,51.92
2023-04-18T11:27:37.091Z,52.56
2023-04-18T11:30:04.275Z,52.93
2023-04-18T11:32:33.486Z,51.91
2023-04-18T11:34:59.900Z,49.99
2023-04-18T11:37:26.349Z,48.37
2023-04-18T11:39:53.455Z,49.78
2023-04-18T11:42:20.508Z,47.47
2023-04-18T11:44:48.399Z,48.09
2023-04-18T11:47:33.243Z,48.08
2023-04-18T11:50:08.018Z,46.30
2023-04-18T11:52:36.063Z,47.83
2023-04-18T11:55:23.850Z,47.60
2023-04-18T11:57:55.405Z,47.82
2023-04-18T12:00:34.848Z,47.63
2023-04-18T12:03:07.280Z,49.20
2023-04-18T12:05:38.490Z,50.75
2023-04-18T12:08:11.075Z,49.42
2023-04-18T12:10:45.386Z,49.43
2023-04-18T12:13:11.769Z,50.66
2023-04-18T12:15:41.567Z,52.25
2023-04-18T12:18:07.883Z,53.63
2023-04-18T12:20:37.063Z,54.56
2023-04-18T12:23:03.518Z,55.17
2023-04-18T12:25:30.941Z,56.38
2023-04-18T12:27:59.797Z,56.96
2023-04-18T12:30:31.089Z,57.19
2023-04-18T12:33:00.620Z,58.34
2023-04-18T12:35:28.242Z,58.69
2023-04-18T12:37:56.407Z,58.74
2023-04-18T12:40:23.396Z,58.71
2023-04-18T12:42:51.044Z,59.83
2023-04-18T12:45:19.849Z,59.16
2023-04-18T12:47:47.779Z,59.34
2023-04-18T12:50:19.557Z,59.09
2023-04-18T12:52:46.188Z,58.37
2023-04-18T12:55:13.405Z,59.33
2023-04-18T12:57:41.649Z,59.13
2023-04-18T13:00:10.518Z,60.10
2023-04-18T13:02:38.319Z,60.35
2023-04-18T13:05:06.249Z,60.33
2023-04-18T13:07:33.015Z,60.04
2023-04-18T13:09:59.378Z,60.43
2023-04-18T13:12:25.949Z,60.24
2023-04-18T13:14:52.437Z,60.08
2023-04-18T13:17:18.699Z,60.58
2023-04-18T13:19:45.449Z,60.23
2023-04-18T13:22:11.711Z,60.03
2023-04-18T13:24:38.041Z,59.45
2023-04-18T13:27:09.680Z,59.47
2023-04-18T13:29:40.453Z,59.23
2023-04-18T13:32:07.652Z,59.46
2023-04-18T13:34:39.079Z,59.48
2023-04-18T13:37:05.752Z,59.45
2023-04-18T13:39:32.990Z,59.48
2023-04-18T13:41:59.321Z,59.77
2023-04-18T13:44:26.118Z,60.08
2023-04-18T13:46:53.899Z,59.91
2023-04-18T13:49:20.493Z,59.77
2023-04-18T13:51:46.891Z,59.32
2023-04-18T13:54:14.865Z,59.79
2023-04-18T13:56:42.053Z,59.54
2023-04-18T13:59:08.341Z,59.53
2023-04-18T14:01:34.798Z,59.02
2023-04-18T14:04:02.439Z,59.48
2023-04-18T14:06:28.964Z,59.62
2023-04-18T14:08:55.224Z,59.39
2023-04-18T14:11:22.427Z,59.69
2023-04-18T14:13:50.145Z,60.08
2023-04-18T14:16:18.272Z,60.19
2023-04-18T14:18:45.632Z,59.97
2023-04-18T14:21:12.472Z,60.55
2023-04-18T14:23:38.717Z,60.32
2023-04-18T14:26:04.958Z,60.52
2023-04-18T14:28:31.500Z,60.66
2023-04-18T14:31:01.263Z,60.35
2023-04-18T14:33:28.550Z,60.28
2023-04-18T14:35:55.239Z,60.33
2023-04-18T14:38:21.478Z,60.22
2023-04-18T14:40:47.824Z,60.40
2023-04-18T14:43:14.051Z,59.49
2023-04-18T14:45:41.410Z,59.58
2023-04-18T14:48:10.027Z,59.40
2023-04-18T14:50:37.854Z,59.40
2023-04-18T14:53:04.891Z,59.54
2023-04-18T14:55:32.688Z,59.62
2023-04-18T14:57:59.467Z,60.00
2023-04-18T15:00:26.267Z,59.88
2023-04-18T15:02:53.264Z,60.04
2023-04-18T15:05:22.958Z,60.54
2023-04-18T15:07:52.284Z,60.02
2023-04-18T15:10:21.612Z,60.51
2023-04-18T15:12:48.045Z,60.08
2023-04-18T15:15:14.516Z,59.63
2023-04-18T15:17:40.911Z,59.69
2023-04-18T15:20:07.769Z,59.78
2023-04-18T15:22:35.242Z,59.84
2023-04-18T15:25:03.611Z,59.78
2023-04-18T15:27:29.887Z,59.64
2023-04-18T15:29:58.184Z,59.82
2023-04-18T15:32:26.091Z,59.33
2023-04-18T15:34:52.556Z,59.19
2023-04-18T15:37:18.954Z,59.27
2023-04-18T15:39:45.345Z,58.66
2023-04-18T15:42:11.566Z,58.42
2023-04-18T15:44:37.898Z,59.28
2023-04-18T15:47:04.191Z,58.80
2023-04-18T15:49:30.545Z,59.11
2023-04-18T15:51:56.952Z,59.14
2023-04-18T15:54:23.285Z,58.76
2023-04-18T15:56:50.926Z,58.37
2023-04-18T15:59:17.295Z,58.50
2023-04-18T16:01:45.873Z,58.41
2023-04-18T16:04:12.835Z,58.95
2023-04-18T16:06:39.970Z,58.83
2023-04-18T16:09:06.247Z,58.62
2023-04-18T16:11:32.495Z,58.35
2023-04-18T16:13:58.746Z,58.63
2023-04-18T16:16:25.849Z,57.10
2023-04-18T16:18:52.132Z,58.06
2023-04-18T16:21:19.903Z,57.91
2023-04-18T16:23:47.983Z,58.16
2023-04-18T16:26:14.361Z,57.75
2023-04-18T16:28:41.344Z,57.56
2023-04-18T16:31:07.745Z,57.38
2023-04-18T16:33:35.202Z,57.25
2023-04-18T16:36:02.383Z,57.47
2023-04-18T16:38:28.734Z,57.58
2023-04-18T16:40:56.717Z,57.72
2023-04-18T16:43:30.208Z,57.98
2023-04-18T16:45:57.294Z,57.54
2023-04-18T16:48:23.911Z,57.87
2023-04-18T16:50:51.155Z,58.15
2023-04-18T16:53:17.573Z,58.33
2023-04-18T16:55:43.867Z,58.44
2023-04-18T16:58:10.453Z,58.48
2023-04-18T17:00:38.359Z,58.64
2023-04-18T17:03:09.354Z,58.67
2023-04-18T17:05:38.609Z,59.17
2023-04-18T17:08:06.076Z,59.28
2023-04-18T17:10:33.161Z,59.52
2023-04-18T17:13:01.448Z,59.56
2023-04-18T17:15:27.846Z,59.54
2023-04-18T17:17:55.875Z,59.84
2023-04-18T17:20:22.945Z,59.60
2023-04-18T17:22:49.246Z,59.87
2023-04-18T17:25:15.964Z,59.88
2023-04-18T17:27:42.616Z,60.14
2023-04-18T17:30:09.509Z,60.20
2023-04-18T17:32:36.280Z,60.13
2023-04-18T17:35:05.553Z,60.39
2023-04-18T17:37:31.860Z,60.37
2023-04-18T17:39:59.727Z,60.49
2023-04-18T17:42:26.259Z,60.70
2023-04-18T17:44:52.607Z,61.26
2023-04-18T17:47:18.839Z,62.10
2023-04-18T17:49:45.653Z,62.35
2023-04-18T17:52:11.977Z,62.35
2023-04-18T17:54:38.219Z,62.90
2023-04-18T17:57:04.784Z,63.19
2023-04-18T17:59:36.749Z,63.43
2023-04-18T18:02:04.196Z,63.73
2023-04-18T18:04:31.134Z,63.92
2023-04-18T18:06:58.308Z,64.35
2023-04-18T18:09:24.769Z,64.86
2023-04-18T18:11:52.451Z,65.12
2023-04-18T18:14:20.631Z,65.75
2023-04-18T18:16:46.994Z,65.95
2023-04-18T18:19:14.696Z,65.86
2023-04-18T18:21:41.547Z,66.04
2023-04-18T18:24:08.475Z,66.28
2023-04-18T18:26:35.520Z,66.00
2023-04-18T18:29:08.470Z,65.81
2023-04-18T18:31:35.720Z,65.65
2023-04-18T18:34:02.759Z,66.99
2023-04-18T18:36:29.267Z,66.19
2023-04-18T18:38:57.421Z,66.20
2023-04-18T18:41:24.237Z,65.86
2023-04-18T18:43:51.073Z,65.54
2023-04-18T18:46:18.197Z,65.45
2023-04-18T18:48:44.642Z,65.37
2023-04-18T18:51:11.329Z,65.59
2023-04-18T18:53:40.218Z,65.63
2023-04-18T18:56:08.083Z,65.36
2023-04-18T18:58:35.261Z,65.03
2023-04-18T19:01:02.609Z,65.35
2023-04-18T19:03:29.803Z,65.36
2023-04-18T19:05:56.472Z,65.18
2023-04-18T19:08:22.766Z,65.13
2023-04-18T19:10:49.871Z,65.27
2023-04-18T19:13:16.271Z,64.99
2023-04-18T19:15:42.675Z,64.77
2023-04-18T19:18:09.158Z,64.84
2023-04-18T19:20:38.032Z,64.83
2023-04-18T19:23:04.299Z,64.70
2023-04-18T19:25:30.713Z,64.85
2023-04-18T19:27:57.050Z,64.75
2023-04-18T19:30:24.384Z,64.46
2023-04-18T19:32:51.158Z,64.47
2023-04-18T19:35:20.188Z,64.47
2023-04-18T19:37:47.313Z,64.57
2023-04-18T19:40:18.455Z,64.53
2023-04-18T19:42:45.439Z,64.44
2023-04-18T19:45:12.949Z,64.52
2023-04-18T19:47:39.362Z,64.46
2023-04-18T19:50:06.852Z,64.53
2023-04-18T19:52:33.243Z,64.43
2023-04-18T19:55:01.875Z,64.59
2023-04-18T19:57:29.066Z,64.37
2023-04-18T19:59:55.868Z,64.52
2023-04-18T20:02:22.195Z,64.47
2023-04-18T20:04:48.821Z,64.42
2023-04-18T20:07:15.797Z,64.48
2023-04-18T20:09:42.110Z,64.43
2023-04-18T20:12:08.480Z,64.40
2023-04-18T20:14:34.958Z,64.45
2023-04-18T20:17:01.505Z,64.52
2023-04-18T20:19:28.907Z,64.43
2023-04-18T20:21:55.395Z,64.74
2023-04-18T20:24:23.036Z,64.49
2023-04-18T20:26:50.671Z,64.58
2023-04-18T20:29:17.053Z,64.54
2023-04-18T20:44:48.544Z,63.38
2023-04-18T20:47:15.936Z,63.51
2023-04-18T20:49:42.363Z,63.89
2023-04-18T20:52:13.722Z,64.00
2023-04-18T20:54:41.007Z,64.16
2023-04-18T20:57:07.555Z,64.22
2023-04-18T20:59:34.120Z,64.88
2023-04-18T21:02:01.050Z,65.29
2023-04-18T21:04:28.740Z,65.46
2023-04-18T21:06:55.542Z,65.92
2023-04-18T21:09:22.467Z,65.90
2023-04-18T21:11:49.158Z,66.35
2023-04-18T21:14:16.559Z,66.37
2023-04-18T21:16:43.221Z,67.00
2023-04-18T21:19:10.904Z,67.04
2023-04-18T21:21:37.163Z,67.17
2023-04-18T21:24:05.049Z,67.49
2023-04-18T21:26:31.285Z,67.58
2023-04-18T21:29:03.923Z,67.69
2023-04-18T21:31:32.575Z,68.01
2023-04-18T21:34:00.934Z,68.25
2023-04-18T21:36:28.303Z,68.15
2023-04-18T21:38:57.626Z,68.05
2023-04-18T21:41:24.552Z,68.54
2023-04-18T21:43:51.236Z,68.98
2023-04-18T21:46:18.429Z,68.99
2023-04-18T21:48:46.926Z,69.16
2023-04-18T21:51:15.506Z,69.05
2023-04-18T21:53:42.344Z,69.33
2023-04-18T21:56:09.159Z,70.55
2023-04-18T21:58:35.498Z,70.34
2023-04-18T22:01:02.432Z,70.28
2023-04-18T22:03:29.354Z,70.85
2023-04-18T22:05:56.036Z,71.76
2023-04-18T22:08:24.996Z,72.12
2023-04-18T22:10:54.359Z,72.30
2023-04-18T22:13:21.545Z,72.24
2023-04-18T22:15:49.247Z,72.61
2023-04-18T22:18:15.573Z,72.34
2023-04-18T22:20:42.488Z,72.74
2023-04-18T22:23:08.989Z,72.73
2023-04-18T22:25:35.642Z,72.32
2023-04-18T22:28:03.017Z,72.32
2023-04-18T22:30:30.362Z,72.53
2023-04-18T22:32:58.359Z,72.62
2023-04-18T22:35:26.149Z,73.32
2023-04-18T22:37:52.391Z,73.01
2023-04-18T22:40:18.841Z,72.52
2023-04-18T22:42:45.202Z,72.28
2023-04-18T22:45:12.737Z,72.84
2023-04-18T22:47:39.116Z,72.18
2023-04-18T22:50:06.382Z,72.14
2023-04-18T22:52:33.361Z,72.20
2023-04-18T22:55:01.564Z,72.30
2023-04-18T22:57:28.014Z,72.14
2023-04-18T22:59:54.351Z,72.26
2023-04-18T23:02:20.737Z,72.32
2023-04-18T23:04:47.342Z,72.82
2023-04-18T23:07:13.727Z,72.46
2023-04-18T23:09:40.272Z,73.04
2023-04-18T23:12:06.632Z,73.33
2023-04-18T23:14:34.148Z,73.39
2023-04-18T23:17:00.669Z,73.52
2023-04-18T23:19:26.922Z,73.73
2023-04-18T23:21:53.519Z,73.71
2023-04-18T23:24:19.735Z,74.25
2023-04-18T23:26:45.963Z,74.99
2023-04-18T23:29:12.218Z,74.99
2023-04-18T23:31:38.490Z,75.72
2023-04-18T23:34:04.769Z,75.32
2023-04-18T23:36:31.614Z,76.27
2023-04-18T23:38:58.258Z,77.35
2023-04-18T23:41:24.754Z,76.35
2023-04-18T23:43:51.100Z,76.96
2023-04-18T23:46:17.488Z,77.53
2023-04-18T23:48:43.871Z,77.79
2023-04-18T23:51:10.475Z,77.08
2023-04-18T23:53:36.710Z,77.63
2023-04-18T23:56:03.091Z,79.15
2023-04-18T23:58:30.968Z,79.99
